createdAt,value
2018-01-15T00:00:01.217Z,38.30
2018-01-15T00:01:01.229Z,38.00
2018-01-15T00:02:01.242Z,39.40
2018-01-15T00:03:01.256Z,36.90
2018-01-15T00:04:01.273Z,38.00
2018-01-15T00:05:01.290Z,38.80
2018-01-15T00:06:01.306Z,40.70
2018-01-15T00:07:01.328Z,38.60
2018-01-15T00:08:01.324Z,39.20
2018-01-15T00:09:01.339Z,39.00
2018-01-15T00:10:01.353Z,41.30
2018-01-15T00:11:01.366Z,39.50
2018-01-15T00:12:01.383Z,44.70
2018-01-15T00:13:01.397Z,40.20
2018-01-15T00:14:01.408Z,38.40
2018-01-15T00:15:01.417Z,43.40
2018-01-15T00:16:01.437Z,36.80
2018-01-15T00:17:01.449Z,39.40
2018-01-15T00:18:01.463Z,36.70
2018-01-15T00:19:01.475Z,37.30
2018-01-15T00:20:01.495Z,35.30
2018-01-15T00:21:01.505Z,37.10
2018-01-15T00:22:01.524Z,34.50
2018-01-15T00:23:01.534Z,37.20
2018-01-15T00:24:01.547Z,36.90
2018-01-15T00:25:01.559Z,38.70
2018-01-15T00:26:01.573Z,38.10
2018-01-15T00:27:01.588Z,34.60
2018-01-15T00:28:01.607Z,35.90
2018-01-15T00:29:01.617Z,40.00
2018-01-15T00:30:01.632Z,35.20
2018-01-15T00:31:01.643Z,37.00
2018-01-15T00:32:01.654Z,38.30
2018-01-15T00:33:01.666Z,39.90
2018-01-15T00:34:01.679Z,37.90
2018-01-15T00:35:01.698Z,38.10
2018-01-15T00:36:01.716Z,39.40
2018-01-15T00:37:01.748Z,36.40
2018-01-15T00:38:01.737Z,36.90
2018-01-15T00:39:01.752Z,36.70
2018-01-15T00:40:01.766Z,38.80
2018-01-15T00:41:01.776Z,35.90
2018-01-15T00:42:01.796Z,37.50
2018-01-15T00:43:01.809Z,36.70
2018-01-15T00:44:01.818Z,36.50
2018-01-15T00:45:01.840Z,37.70
2018-01-15T00:46:01.847Z,35.00
2018-01-15T00:47:01.862Z,38.10
2018-01-15T00:48:01.877Z,37.10
2018-01-15T00:49:01.892Z,34.30
2018-01-15T00:50:01.900Z,40.20
2018-01-15T00:51:01.915Z,39.70
2018-01-15T00:52:01.932Z,36.00
2018-01-15T00:53:01.945Z,38.10
2018-01-15T00:54:01.960Z,38.80
2018-01-15T00:55:01.971Z,36.20
2018-01-15T00:56:01.990Z,37.90
2018-01-15T00:57:02.000Z,37.70
2018-01-15T00:58:02.011Z,37.30
2018-01-15T00:59:02.027Z,35.90
2018-01-15T01:00:02.042Z,36.20
2018-01-15T01:01:02.052Z,33.40
2018-01-15T01:02:02.067Z,36.50
2018-01-15T01:03:02.084Z,37.10
2018-01-15T01:04:02.098Z,37.20
2018-01-15T01:05:02.107Z,35.10
2018-01-15T01:06:02.124Z,35.50
2018-01-15T01:07:02.140Z,38.60
2018-01-15T01:08:02.153Z,35.20
2018-01-15T01:09:02.168Z,36.70
2018-01-15T01:10:02.181Z,36.70
2018-01-15T01:11:02.194Z,37.40
2018-01-15T01:12:02.208Z,33.80
2018-01-15T01:13:02.222Z,36.00
2018-01-15T01:14:02.238Z,34.60
2018-01-15T01:15:02.244Z,35.40
2018-01-15T01:16:02.263Z,32.50
2018-01-15T01:17:02.283Z,34.10
2018-01-15T01:18:02.293Z,35.00
2018-01-15T01:19:02.304Z,34.70
2018-01-15T01:20:02.322Z,34.10
2018-01-15T01:21:02.331Z,36.80
2018-01-15T01:22:02.345Z,34.50
2018-01-15T01:23:02.357Z,32.90
2018-01-15T01:24:02.374Z,34.40
2018-01-15T01:25:02.390Z,31.70
2018-01-15T01:26:02.401Z,34.10
2018-01-15T01:27:02.432Z,31.90
2018-01-15T01:28:02.438Z,33.20
2018-01-15T01:29:02.451Z,33.90
2018-01-15T01:30:02.457Z,34.20
2018-01-15T01:31:02.472Z,31.00
2018-01-15T01:32:02.485Z,33.40
2018-01-15T01:33:02.495Z,29.80
2018-01-15T01:34:02.516Z,29.40
2018-01-15T01:35:02.527Z,32.50
2018-01-15T01:36:02.543Z,30.50
2018-01-15T01:37:02.560Z,31.90
2018-01-15T01:38:02.572Z,32.70
2018-01-15T01:39:02.590Z,33.80
2018-01-15T01:40:02.600Z,31.90
2018-01-15T01:41:02.613Z,30.60
2018-01-15T01:42:02.629Z,35.20
2018-01-15T01:43:02.648Z,31.70
2018-01-15T01:44:02.661Z,31.50
2018-01-15T01:45:02.676Z,29.80
2018-01-15T01:46:02.687Z,29.60
2018-01-15T01:47:02.697Z,30.10
2018-01-15T01:48:02.713Z,29.70
2018-01-15T01:49:02.729Z,32.30
2018-01-15T01:50:02.740Z,32.40
2018-01-15T01:51:02.757Z,31.80
2018-01-15T01:52:02.767Z,29.10
2018-01-15T01:53:02.785Z,30.30
2018-01-15T01:54:02.799Z,30.40
2018-01-15T01:55:02.810Z,29.30
2018-01-15T01:56:02.832Z,34.50
2018-01-15T01:57:02.846Z,32.70
2018-01-15T01:58:02.860Z,30.00
2018-01-15T01:59:02.871Z,29.70
2018-01-15T02:00:02.885Z,31.30
2018-01-15T02:01:02.902Z,31.30
2018-01-15T02:02:02.914Z,30.00
2018-01-15T02:03:02.929Z,30.90
2018-01-15T02:04:02.944Z,30.50
2018-01-15T02:05:02.965Z,30.80
2018-01-15T02:06:02.973Z,31.30
2018-01-15T02:07:02.984Z,30.80
2018-01-15T02:08:03.003Z,29.90
2018-01-15T02:09:03.013Z,28.30
2018-01-15T02:10:03.030Z,29.70
2018-01-15T02:11:03.042Z,32.40
2018-01-15T02:12:03.059Z,32.20
2018-01-15T02:13:03.076Z,30.10
2018-01-15T02:14:03.088Z,31.60
2018-01-15T02:15:03.105Z,29.00
2018-01-15T02:16:03.112Z,32.00
2018-01-15T02:17:03.131Z,31.50
2018-01-15T02:18:03.151Z,30.40
2018-01-15T02:19:03.157Z,31.10
2018-01-15T02:20:03.171Z,33.00
2018-01-15T02:21:03.196Z,29.20
2018-01-15T02:22:03.205Z,31.50
2018-01-15T02:23:03.217Z,30.30
2018-01-15T02:24:03.231Z,30.60
2018-01-15T02:25:03.249Z,30.00
2018-01-15T02:26:03.260Z,30.80
2018-01-15T02:27:03.274Z,29.70
2018-01-15T02:28:03.289Z,30.40
2018-01-15T02:29:03.304Z,30.60
2018-01-15T02:30:03.322Z,31.50
2018-01-15T02:31:03.334Z,30.60
2018-01-15T02:32:03.353Z,28.60
2018-01-15T02:33:03.361Z,32.90
2018-01-15T02:34:03.382Z,30.30
2018-01-15T02:35:03.394Z,30.90
2018-01-15T02:36:03.406Z,31.80
2018-01-15T02:37:03.418Z,29.00
2018-01-15T02:38:03.435Z,28.30
2018-01-15T02:39:03.448Z,29.60
2018-01-15T02:40:03.464Z,28.20
2018-01-15T02:41:03.481Z,32.60
2018-01-15T02:42:03.494Z,31.00
2018-01-15T02:43:03.505Z,31.60
2018-01-15T02:44:03.522Z,30.20
2018-01-15T02:45:03.533Z,31.00
2018-01-15T02:46:03.554Z,30.30
2018-01-15T02:47:03.570Z,30.90
2018-01-15T02:48:03.590Z,31.30
2018-01-15T02:49:03.597Z,30.20
2018-01-15T02:50:03.617Z,31.50
2018-01-15T02:51:03.627Z,32.40
2018-01-15T02:52:03.640Z,29.30
2018-01-15T02:53:03.655Z,29.40
2018-01-15T02:54:03.670Z,30.90
2018-01-15T02:55:03.685Z,32.40
2018-01-15T02:56:03.701Z,30.20
2018-01-15T02:57:03.718Z,30.10
2018-01-15T02:58:03.730Z,28.00
2018-01-15T02:59:03.745Z,29.00
2018-01-15T03:00:03.757Z,31.00
2018-01-15T03:01:03.774Z,30.20
2018-01-15T03:02:03.784Z,31.00
2018-01-15T03:03:03.807Z,30.20
2018-01-15T03:04:03.819Z,31.90
2018-01-15T03:05:03.826Z,30.00
2018-01-15T03:06:03.847Z,30.60
2018-01-15T03:07:03.861Z,34.90
2018-01-15T03:08:03.873Z,31.10
2018-01-15T03:09:03.900Z,30.40
2018-01-15T03:10:03.908Z,32.20
2018-01-15T03:11:03.917Z,31.80
2018-01-15T03:12:03.935Z,29.50
2018-01-15T03:13:03.955Z,30.80
2018-01-15T03:14:03.966Z,31.40
2018-01-15T03:15:03.980Z,29.50
2018-01-15T03:16:03.995Z,30.90
2018-01-15T03:17:04.008Z,29.00
2018-01-15T03:18:04.023Z,30.50
2018-01-15T03:19:04.038Z,29.90
2018-01-15T03:20:04.053Z,29.10
2018-01-15T03:21:04.067Z,31.90
2018-01-15T03:22:04.082Z,30.70
2018-01-15T03:23:04.098Z,29.80
2018-01-15T03:24:04.110Z,29.80
2018-01-15T03:25:04.130Z,30.70
2018-01-15T03:26:04.142Z,29.40
2018-01-15T03:27:04.157Z,28.00
2018-01-15T03:28:04.174Z,29.30
2018-01-15T03:29:04.187Z,30.50
2018-01-15T03:30:04.202Z,31.40
2018-01-15T03:31:04.218Z,29.50
2018-01-15T03:32:04.230Z,31.40
2018-01-15T03:33:04.244Z,27.80
2018-01-15T03:34:04.266Z,30.60
2018-01-15T03:35:04.275Z,28.60
2018-01-15T03:36:04.296Z,27.00
2018-01-15T03:37:04.310Z,29.70
2018-01-15T03:38:04.324Z,29.20
2018-01-15T03:39:04.334Z,28.80
2018-01-15T03:40:04.354Z,27.10
2018-01-15T03:41:04.366Z,29.40
2018-01-15T03:42:04.378Z,28.70
2018-01-15T03:43:04.394Z,28.10
2018-01-15T03:44:04.417Z,28.30
2018-01-15T03:45:04.430Z,27.40
2018-01-15T03:46:04.441Z,27.70
2018-01-15T03:47:04.455Z,28.70
2018-01-15T03:48:04.478Z,27.10
2018-01-15T03:49:04.484Z,28.10
2018-01-15T03:50:04.506Z,29.00
2018-01-15T03:51:04.514Z,30.50
2018-01-15T03:52:04.533Z,27.10
2018-01-15T03:53:04.548Z,32.10
2018-01-15T03:54:04.563Z,27.60
2018-01-15T03:55:04.576Z,26.40
2018-01-15T03:56:04.590Z,27.80
2018-01-15T03:57:04.604Z,27.80
2018-01-15T03:58:04.620Z,28.90
2018-01-15T03:59:04.641Z,27.60
2018-01-15T04:00:04.654Z,28.20
2018-01-15T04:01:04.665Z,28.10
2018-01-15T04:02:04.719Z,26.40
2018-01-15T04:03:04.696Z,27.70
2018-01-15T04:04:04.715Z,27.90
2018-01-15T04:05:04.730Z,27.30
2018-01-15T04:06:04.740Z,25.80
2018-01-15T04:07:04.757Z,31.00
2018-01-15T04:08:04.769Z,28.30
2018-01-15T04:09:04.787Z,28.60
2018-01-15T04:10:04.801Z,28.80
2018-01-15T04:11:04.820Z,26.60
2018-01-15T04:12:04.829Z,27.60
2018-01-15T04:13:04.847Z,26.30
2018-01-15T04:14:04.881Z,25.60
2018-01-15T04:15:04.881Z,29.50
2018-01-15T04:16:04.892Z,27.50
2018-01-15T04:17:04.912Z,27.90
2018-01-15T04:18:04.927Z,26.70
2018-01-15T04:19:04.935Z,29.20
2018-01-15T04:20:04.954Z,26.90
2018-01-15T04:21:04.978Z,26.60
2018-01-15T04:22:04.984Z,26.90
2018-01-15T04:23:05.001Z,29.30
2018-01-15T04:24:05.018Z,29.80
2018-01-15T04:25:05.031Z,26.70
2018-01-15T04:26:05.055Z,28.80
2018-01-15T04:27:05.064Z,29.30
2018-01-15T04:28:05.089Z,28.40
2018-01-15T04:29:05.094Z,26.60
2018-01-15T04:30:05.114Z,24.60
2018-01-15T04:31:05.124Z,26.50
2018-01-15T04:32:05.138Z,29.70
2018-01-15T04:33:05.157Z,27.30
2018-01-15T04:34:05.170Z,26.50
2018-01-15T04:35:05.188Z,28.00
2018-01-15T04:36:05.202Z,27.10
2018-01-15T04:37:05.220Z,28.70
2018-01-15T04:38:05.234Z,28.40
2018-01-15T04:39:05.250Z,26.20
2018-01-15T04:40:05.270Z,28.30
2018-01-15T04:41:05.279Z,27.20
2018-01-15T04:42:05.296Z,28.90
2018-01-15T04:43:05.306Z,31.50
2018-01-15T04:44:05.326Z,28.90
2018-01-15T04:45:05.344Z,27.00
2018-01-15T04:46:05.354Z,25.80
2018-01-15T04:47:05.369Z,27.30
2018-01-15T04:48:05.390Z,28.10
2018-01-15T04:49:05.405Z,28.00
2018-01-15T04:50:05.420Z,30.10
2018-01-15T04:51:05.469Z,27.90
2018-01-15T04:52:05.454Z,28.30
2018-01-15T04:53:05.463Z,27.70
2018-01-15T04:54:05.478Z,28.00
2018-01-15T04:55:05.496Z,27.60
2018-01-15T04:56:05.509Z,28.90
2018-01-15T04:57:05.524Z,29.90
2018-01-15T04:58:05.545Z,30.10
2018-01-15T04:59:05.557Z,28.40
2018-01-15T05:00:05.580Z,29.40
2018-01-15T05:01:05.587Z,29.20
2018-01-15T05:02:05.602Z,29.40
2018-01-15T05:03:05.629Z,31.00
2018-01-15T05:04:05.634Z,25.80
2018-01-15T05:05:05.651Z,27.80
2018-01-15T05:06:05.674Z,29.80
2018-01-15T05:07:05.687Z,28.40
2018-01-15T05:08:05.700Z,28.10
2018-01-15T05:09:05.721Z,28.90
2018-01-15T05:10:05.729Z,29.90
2018-01-15T05:11:05.745Z,26.70
2018-01-15T05:12:05.759Z,26.80
2018-01-15T05:13:05.789Z,26.90
2018-01-15T05:14:05.811Z,28.00
2018-01-15T05:15:05.814Z,30.00
2018-01-15T05:16:05.832Z,28.20
2018-01-15T05:17:05.848Z,28.70
2018-01-15T05:18:05.857Z,29.10
2018-01-15T05:19:05.871Z,28.20
2018-01-15T05:20:05.885Z,28.20
2018-01-15T05:21:05.901Z,32.10
2018-01-15T05:22:05.920Z,28.70
2018-01-15T05:23:05.937Z,27.90
2018-01-15T05:24:05.954Z,28.80
2018-01-15T05:25:05.971Z,28.50
2018-01-15T05:26:05.984Z,30.00
2018-01-15T05:27:05.998Z,28.60
2018-01-15T05:28:06.018Z,28.80
2018-01-15T05:29:06.039Z,27.30
2018-01-15T05:30:06.045Z,28.50
2018-01-15T05:31:06.059Z,30.80
2018-01-15T05:32:06.084Z,27.20
2018-01-15T05:33:06.090Z,31.00
2018-01-15T05:34:06.113Z,30.20
2018-01-15T05:35:06.133Z,31.30
2018-01-15T05:36:06.141Z,29.10
2018-01-15T05:37:06.210Z,31.30
2018-01-15T05:38:06.179Z,30.30
2018-01-15T05:39:06.183Z,29.50
2018-01-15T05:40:06.215Z,30.70
2018-01-15T05:41:06.217Z,30.20
2018-01-15T05:42:06.234Z,30.80
2018-01-15T05:43:06.263Z,30.20
2018-01-15T05:44:06.267Z,28.10
2018-01-15T05:45:06.282Z,30.90
2018-01-15T05:46:06.301Z,30.10
2018-01-15T05:47:06.319Z,26.40
2018-01-15T05:48:06.326Z,29.00
2018-01-15T05:49:06.346Z,28.10
2018-01-15T05:50:06.358Z,27.50
2018-01-15T05:51:06.373Z,28.10
2018-01-15T05:52:06.389Z,28.90
2018-01-15T05:53:06.408Z,29.10
2018-01-15T05:54:06.430Z,29.10
2018-01-15T05:55:06.436Z,28.80
2018-01-15T05:56:06.457Z,26.90
2018-01-15T05:57:06.467Z,28.50
2018-01-15T05:58:06.486Z,31.50
2018-01-15T05:59:06.502Z,28.70
2018-01-15T06:00:06.524Z,27.40
2018-01-15T06:01:06.536Z,30.70
2018-01-15T06:02:06.548Z,28.30
2018-01-15T06:03:06.562Z,27.70
2018-01-15T06:04:06.579Z,30.00
2018-01-15T06:05:06.597Z,30.10
2018-01-15T06:06:06.618Z,31.70
2018-01-15T06:07:06.625Z,28.20
2018-01-15T06:08:06.645Z,29.00
2018-01-15T06:09:06.664Z,29.00
2018-01-15T06:10:06.676Z,26.90
2018-01-15T06:11:06.686Z,28.80
2018-01-15T06:12:06.705Z,30.60
2018-01-15T06:13:06.720Z,28.20
2018-01-15T06:14:06.736Z,30.00
2018-01-15T06:15:06.750Z,28.30
2018-01-15T06:16:06.767Z,28.30
2018-01-15T06:17:06.784Z,29.70
2018-01-15T06:18:06.801Z,31.00
2018-01-15T06:19:06.813Z,28.90
2018-01-15T06:20:06.833Z,27.40
2018-01-15T06:21:06.843Z,30.60
2018-01-15T06:22:06.861Z,29.00
2018-01-15T06:23:06.879Z,30.00
2018-01-15T06:24:06.889Z,29.90
2018-01-15T06:25:06.906Z,28.60
2018-01-15T06:26:06.921Z,27.80
2018-01-15T06:27:06.943Z,26.60
2018-01-15T06:28:06.953Z,27.20
2018-01-15T06:29:06.974Z,27.10
2018-01-15T06:30:06.991Z,29.00
2018-01-15T06:31:07.010Z,30.30
2018-01-15T06:32:07.018Z,27.80
2018-01-15T06:33:07.035Z,28.60
2018-01-15T06:34:07.050Z,29.80
2018-01-15T06:35:07.066Z,30.80
2018-01-15T06:36:07.088Z,28.40
2018-01-15T06:37:07.093Z,28.60
2018-01-15T06:38:07.108Z,30.30
2018-01-15T06:39:07.132Z,29.10
2018-01-15T06:40:07.145Z,29.30
2018-01-15T06:41:07.160Z,28.60
2018-01-15T06:42:07.176Z,30.80
2018-01-15T06:43:07.189Z,30.00
2018-01-15T06:44:07.209Z,29.30
2018-01-15T06:45:07.218Z,28.80
2018-01-15T06:46:07.242Z,29.10
2018-01-15T06:47:07.252Z,28.90
2018-01-15T06:48:07.270Z,31.50
2018-01-15T06:49:07.282Z,30.90
2018-01-15T06:50:07.299Z,27.90
2018-01-15T06:51:07.312Z,30.40
2018-01-15T06:52:07.323Z,28.70
2018-01-15T06:53:07.351Z,32.60
2018-01-15T06:54:07.372Z,30.10
2018-01-15T06:55:07.368Z,32.00
2018-01-15T06:56:07.388Z,29.40
2018-01-15T06:57:07.402Z,29.80
2018-01-15T06:58:07.420Z,31.30
2018-01-15T06:59:07.440Z,29.10
2018-01-15T07:00:07.451Z,29.70
2018-01-15T07:01:07.469Z,31.90
2018-01-15T07:02:07.478Z,28.90
2018-01-15T07:03:07.497Z,25.70
2018-01-15T07:04:07.514Z,29.90
2018-01-15T07:05:07.526Z,28.30
2018-01-15T07:06:07.543Z,27.40
2018-01-15T07:07:07.562Z,27.20
2018-01-15T07:08:07.586Z,30.80
2018-01-15T07:09:07.593Z,31.30
2018-01-15T07:10:07.607Z,26.80
2018-01-15T07:11:07.614Z,30.80
2018-01-15T07:12:07.625Z,26.80
2018-01-15T07:13:07.644Z,29.00
2018-01-15T07:14:07.658Z,30.20
2018-01-15T07:15:07.674Z,30.30
2018-01-15T07:16:07.700Z,27.50
2018-01-15T07:17:07.720Z,28.80
2018-01-15T07:18:07.726Z,28.70
2018-01-15T07:19:07.760Z,29.00
2018-01-15T07:20:07.751Z,29.70
2018-01-15T07:21:07.764Z,30.70
2018-01-15T07:22:07.788Z,28.30
2018-01-15T07:23:07.800Z,26.70
2018-01-15T07:24:07.829Z,28.50
2018-01-15T07:25:07.831Z,27.80
2018-01-15T07:26:07.842Z,26.40
2018-01-15T07:27:07.856Z,27.80
2018-01-15T07:28:07.886Z,29.00
2018-01-15T07:29:07.924Z,32.20
2018-01-15T07:30:07.908Z,27.20
2018-01-15T07:31:07.926Z,28.60
2018-01-15T07:32:07.935Z,26.30
2018-01-15T07:33:07.963Z,26.90
2018-01-15T07:34:07.970Z,27.60
2018-01-15T07:35:07.994Z,27.00
2018-01-15T07:36:07.997Z,32.20
2018-01-15T07:37:08.015Z,27.50
2018-01-15T07:38:08.032Z,26.70
2018-01-15T07:39:08.047Z,29.00
2018-01-15T07:40:08.056Z,28.50
2018-01-15T07:41:08.075Z,31.10
2018-01-15T07:42:08.097Z,29.30
2018-01-15T07:43:08.104Z,26.80
2018-01-15T07:44:08.124Z,28.00
2018-01-15T07:45:08.144Z,26.10
2018-01-15T07:46:08.189Z,28.60
2018-01-15T07:47:08.172Z,25.80
2018-01-15T07:48:08.189Z,27.50
2018-01-15T07:49:08.203Z,28.30
2018-01-15T07:50:08.213Z,30.40
2018-01-15T07:51:08.225Z,27.70
2018-01-15T07:52:08.246Z,26.80
2018-01-15T07:53:08.265Z,28.30
2018-01-15T07:54:08.277Z,30.10
2018-01-15T07:55:08.296Z,25.70
2018-01-15T07:56:08.310Z,28.30
2018-01-15T07:57:08.325Z,28.70
2018-01-15T07:58:08.335Z,27.00
2018-01-15T07:59:08.352Z,28.80
2018-01-15T08:00:08.370Z,25.60
2018-01-15T08:01:08.386Z,26.70
2018-01-15T08:02:08.396Z,27.30
2018-01-15T08:03:08.428Z,26.60
2018-01-15T08:04:08.440Z,28.50
2018-01-15T08:05:08.457Z,27.70
2018-01-15T08:06:08.466Z,28.60
2018-01-15T08:07:08.480Z,27.60
2018-01-15T08:08:08.503Z,26.80
2018-01-15T08:09:08.514Z,25.90
2018-01-15T08:10:08.526Z,28.70
2018-01-15T08:11:08.546Z,29.50
2018-01-15T08:12:08.550Z,26.00
2018-01-15T08:13:08.566Z,26.30
2018-01-15T08:14:08.588Z,25.40
2018-01-15T08:15:08.616Z,28.50
2018-01-15T08:16:08.641Z,27.40
2018-01-15T08:17:08.646Z,26.00
2018-01-15T08:18:08.644Z,27.60
2018-01-15T08:19:08.678Z,27.80
2018-01-15T08:20:08.694Z,24.20
2018-01-15T08:21:08.709Z,28.60
2018-01-15T08:22:08.706Z,25.20
2018-01-15T08:23:08.719Z,28.50
2018-01-15T08:24:08.748Z,27.30
2018-01-15T08:25:08.759Z,24.30
2018-01-15T08:26:08.767Z,24.90
2018-01-15T08:27:08.782Z,28.40
2018-01-15T08:28:08.814Z,25.30
2018-01-15T08:29:08.816Z,26.90
2018-01-15T08:30:08.833Z,26.60
2018-01-15T08:31:08.846Z,28.80
2018-01-15T08:32:08.876Z,26.60
2018-01-15T08:33:08.874Z,25.20
2018-01-15T08:34:08.922Z,28.00
2018-01-15T08:35:08.917Z,27.80
2018-01-15T08:36:08.928Z,25.60
2018-01-15T08:37:08.957Z,23.60
2018-01-15T08:38:09.012Z,25.80
2018-01-15T08:39:08.970Z,28.20
2018-01-15T08:40:08.997Z,22.80
2018-01-15T08:41:09.000Z,25.70
2018-01-15T08:42:09.046Z,25.10
2018-01-15T08:43:09.037Z,25.20
2018-01-15T08:44:09.060Z,24.80
2018-01-15T08:45:09.066Z,24.40
2018-01-15T08:46:09.086Z,22.70
2018-01-15T08:47:09.094Z,24.80
2018-01-15T08:48:09.123Z,22.80
2018-01-15T08:49:09.134Z,23.80
2018-01-15T08:50:09.164Z,22.70
2018-01-15T08:51:09.165Z,22.20
2018-01-15T08:52:09.185Z,21.40
2018-01-15T08:53:09.188Z,23.20
2018-01-15T08:54:09.203Z,24.30
2018-01-15T08:55:09.218Z,24.20
2018-01-15T08:56:09.230Z,22.60
2018-01-15T08:57:09.245Z,22.30
2018-01-15T08:58:09.272Z,23.90
2018-01-15T08:59:09.314Z,23.40
2018-01-15T09:00:09.293Z,27.70
2018-01-15T09:01:09.334Z,24.20
2018-01-15T09:02:09.340Z,26.80
2018-01-15T09:03:09.358Z,24.20
2018-01-15T09:04:09.372Z,23.70
2018-01-15T09:05:09.380Z,23.70
2018-01-15T09:06:09.396Z,21.50
2018-01-15T09:07:09.431Z,22.60
2018-01-15T09:08:09.431Z,26.50
2018-01-15T09:09:09.451Z,21.50
2018-01-15T09:10:09.465Z,22.30
2018-01-15T09:11:09.478Z,23.00
2018-01-15T09:12:09.502Z,21.40
2018-01-15T09:13:09.510Z,22.30
2018-01-15T09:14:09.518Z,23.20
2018-01-15T09:15:09.542Z,18.80
2018-01-15T09:16:09.557Z,20.00
2018-01-15T09:17:09.573Z,21.00
2018-01-15T09:18:09.591Z,19.90
2018-01-15T09:19:09.598Z,21.60
2018-01-15T09:20:09.610Z,20.20
2018-01-15T09:21:09.674Z,20.60
2018-01-15T09:22:09.664Z,20.60
2018-01-15T09:23:09.675Z,21.40
2018-01-15T09:24:09.694Z,20.40
2018-01-15T09:25:09.701Z,18.70
2018-01-15T09:26:09.709Z,19.60
2018-01-15T09:27:09.734Z,19.50
2018-01-15T09:28:09.762Z,18.60
2018-01-15T09:29:09.786Z,18.90
2018-01-15T09:30:09.809Z,23.10
2018-01-15T09:31:09.802Z,21.90
2018-01-15T09:32:09.840Z,21.00
2018-01-15T09:33:09.833Z,21.60
2018-01-15T09:34:09.858Z,17.50
2018-01-15T09:35:09.865Z,18.50
2018-01-15T09:36:10.532Z,18.00
2018-01-15T09:37:09.889Z,17.70
2018-01-15T09:38:09.909Z,17.00
2018-01-15T09:39:09.948Z,19.30
2018-01-15T09:40:09.951Z,17.10
2018-01-15T09:41:09.975Z,16.70
2018-01-15T09:42:09.977Z,16.00
2018-01-15T09:43:09.986Z,15.60
2018-01-15T09:44:10.016Z,16.80
2018-01-15T09:45:10.027Z,16.30
2018-01-15T09:46:10.050Z,14.90
2018-01-15T09:47:10.064Z,17.90
2018-01-15T09:48:10.077Z,15.80
2018-01-15T09:49:10.100Z,15.30
2018-01-15T09:50:10.113Z,13.80
2018-01-15T09:51:10.149Z,14.50
2018-01-15T09:52:10.153Z,14.10
2018-01-15T09:53:10.163Z,14.10
2018-01-15T09:54:10.179Z,13.40
2018-01-15T09:55:10.190Z,13.80
2018-01-15T09:56:10.205Z,15.30
2018-01-15T09:57:10.225Z,13.20
2018-01-15T09:58:10.251Z,12.70
2018-01-15T09:59:10.258Z,12.70
2018-01-15T10:00:10.321Z,12.10
2018-01-15T10:01:10.298Z,12.40
2018-01-15T10:02:10.306Z,12.40
2018-01-15T10:03:10.326Z,13.10
2018-01-15T10:04:10.338Z,12.70
2018-01-15T10:05:10.371Z,11.80
2018-01-15T10:06:10.396Z,12.50
2018-01-15T10:07:10.389Z,13.00
2018-01-15T10:08:10.407Z,16.50
2018-01-15T10:09:10.433Z,13.70
2018-01-15T10:10:10.439Z,13.30
2018-01-15T10:11:10.461Z,12.90
2018-01-15T10:12:10.616Z,13.30
2018-01-15T10:13:10.505Z,14.70
2018-01-15T10:14:10.513Z,11.50
2018-01-15T10:15:10.533Z,15.70
2018-01-15T10:16:10.552Z,12.70
2018-01-15T10:17:10.565Z,12.80
2018-01-15T10:18:10.579Z,14.30
2018-01-15T10:19:10.604Z,13.60
2018-01-15T10:20:10.617Z,12.90
2018-01-15T10:21:10.635Z,12.40
2018-01-15T10:22:10.639Z,13.80
2018-01-15T10:23:10.661Z,13.20
2018-01-15T10:24:10.688Z,13.50
2018-01-15T10:25:10.692Z,12.10
2018-01-15T10:26:10.721Z,14.00
2018-01-15T10:27:10.769Z,12.90
2018-01-15T10:28:10.762Z,12.90
2018-01-15T10:29:10.757Z,14.00
2018-01-15T10:30:10.776Z,13.80
2018-01-15T10:31:10.801Z,12.80
2018-01-15T10:32:10.808Z,12.40
2018-01-15T10:33:10.838Z,12.50
2018-01-15T10:34:10.849Z,11.60
2018-01-15T10:35:10.867Z,13.70
2018-01-15T10:36:10.879Z,12.10
2018-01-15T10:37:10.895Z,10.70
2018-01-15T10:38:10.917Z,10.90
2018-01-15T10:39:10.937Z,10.50
2018-01-15T10:40:10.950Z,9.10
2018-01-15T10:41:10.973Z,9.90
2018-01-15T10:42:10.983Z,9.70
2018-01-15T10:43:11.004Z,10.90
2018-01-15T10:44:11.023Z,9.30
2018-01-15T10:45:11.047Z,9.90
2018-01-15T10:46:11.060Z,9.00
2018-01-15T10:47:11.067Z,8.60
2018-01-15T10:48:11.090Z,11.30
2018-01-15T10:49:11.169Z,9.00
2018-01-15T10:50:11.174Z,9.30
2018-01-15T10:51:11.144Z,8.60
2018-01-15T10:52:11.165Z,7.70
2018-01-15T10:53:11.171Z,8.70
2018-01-15T10:54:11.196Z,8.00
2018-01-15T10:55:11.224Z,9.80
2018-01-15T10:56:11.225Z,9.70
2018-01-15T10:57:11.290Z,9.00
2018-01-15T10:58:11.263Z,9.70
2018-01-15T10:59:11.287Z,9.40
2018-01-15T11:00:11.313Z,8.80
2018-01-15T11:01:11.318Z,8.60
2018-01-15T11:02:11.381Z,9.20
2018-01-15T11:03:11.365Z,8.60
2018-01-15T11:04:11.370Z,9.00
2018-01-15T11:05:11.392Z,9.90
2018-01-15T11:06:11.409Z,9.00
2018-01-15T11:07:11.426Z,8.60
2018-01-15T11:08:11.441Z,9.80
2018-01-15T11:09:11.459Z,8.60
2018-01-15T11:10:11.477Z,7.80
2018-01-15T11:11:11.493Z,8.50
2018-01-15T11:12:11.513Z,8.20
2018-01-15T11:13:11.530Z,7.70
2018-01-15T11:14:11.550Z,10.00
2018-01-15T11:15:11.569Z,8.50
2018-01-15T11:16:11.583Z,9.10
2018-01-15T11:17:11.604Z,11.60
2018-01-15T11:18:11.616Z,11.60
2018-01-15T11:19:11.642Z,13.00
2018-01-15T11:20:11.654Z,11.50
2018-01-15T11:21:11.669Z,10.50
2018-01-15T11:22:11.684Z,9.90
2018-01-15T11:23:11.719Z,9.60
2018-01-15T11:24:11.723Z,10.30
2018-01-15T11:25:11.747Z,8.90
2018-01-15T11:26:11.768Z,11.20
2018-01-15T11:27:11.774Z,7.30
2018-01-15T11:28:11.796Z,9.50
2018-01-15T11:29:11.815Z,10.10
2018-01-15T11:30:11.833Z,8.60
2018-01-15T11:31:11.845Z,8.50
2018-01-15T11:32:11.869Z,9.20
2018-01-15T11:33:11.882Z,8.70
2018-01-15T11:34:11.902Z,8.20
2018-01-15T11:35:11.974Z,8.50
2018-01-15T11:36:11.962Z,8.10
2018-01-15T11:37:11.975Z,9.40
2018-01-15T11:38:11.972Z,10.50
2018-01-15T11:39:11.984Z,15.90
2018-01-15T11:40:12.002Z,16.00
2018-01-15T11:41:12.082Z,12.50
2018-01-15T11:42:12.038Z,9.50
2018-01-15T11:43:12.074Z,10.00
2018-01-15T11:44:12.101Z,7.70
2018-01-15T11:45:13.059Z,9.80
2018-01-15T11:46:12.643Z,8.30
2018-01-15T11:47:12.130Z,6.90
2018-01-15T11:48:12.188Z,6.70
2018-01-15T11:49:12.179Z,6.60
2018-01-15T11:50:12.204Z,7.10
2018-01-15T11:51:12.218Z,7.00
2018-01-15T11:52:12.221Z,7.90
2018-01-15T11:53:12.236Z,8.20
2018-01-15T11:54:12.286Z,9.40
2018-01-15T11:55:12.268Z,10.90
2018-01-15T11:56:12.282Z,11.20
2018-01-15T11:57:12.298Z,9.80
2018-01-15T11:58:12.325Z,8.30
2018-01-15T11:59:12.391Z,10.90
2018-01-15T12:00:12.363Z,12.10
2018-01-15T12:01:12.368Z,8.30
2018-01-15T12:02:12.406Z,7.70
2018-01-15T12:03:12.415Z,11.10
2018-01-15T12:04:12.426Z,9.60
2018-01-15T12:05:12.438Z,10.10
2018-01-15T12:06:12.465Z,11.40
2018-01-15T12:07:12.496Z,9.90
2018-01-15T12:08:12.514Z,9.10
2018-01-15T12:09:12.508Z,8.30
2018-01-15T12:10:12.527Z,10.90
2018-01-15T12:11:12.558Z,10.30
2018-01-15T12:12:12.564Z,11.80
2018-01-15T12:13:12.583Z,12.60
2018-01-15T12:14:12.653Z,10.30
2018-01-15T12:15:12.615Z,10.60
2018-01-15T12:16:12.639Z,11.10
2018-01-15T12:17:12.660Z,9.40
2018-01-15T12:18:12.669Z,7.90
2018-01-15T12:19:12.706Z,9.80
2018-01-15T12:20:12.709Z,10.20
2018-01-15T12:21:12.727Z,9.00
2018-01-15T12:22:12.746Z,8.60
2018-01-15T12:23:12.762Z,10.70
2018-01-15T12:24:12.784Z,8.00
2018-01-15T12:25:12.795Z,8.40
2018-01-15T12:26:12.813Z,6.00
2018-01-15T12:27:12.831Z,6.70
2018-01-15T12:28:12.849Z,6.80
2018-01-15T12:29:12.867Z,7.40
2018-01-15T12:30:12.880Z,7.00
2018-01-15T12:31:12.900Z,7.30
2018-01-15T12:32:12.919Z,6.80
2018-01-15T12:33:12.933Z,6.10
2018-01-15T12:34:12.951Z,7.50
2018-01-15T12:35:12.981Z,8.80
2018-01-15T12:36:12.986Z,7.20
2018-01-15T12:37:13.012Z,6.40
2018-01-15T12:38:13.031Z,6.60
2018-01-15T12:39:13.045Z,6.10
2018-01-15T12:40:13.084Z,6.10
2018-01-15T12:41:13.077Z,6.80
2018-01-15T12:42:13.109Z,6.40
2018-01-15T12:43:13.120Z,5.70
2018-01-15T12:44:13.128Z,5.90
2018-01-15T12:45:13.157Z,5.30
2018-01-15T12:46:13.166Z,4.80
2018-01-15T12:47:13.191Z,6.90
2018-01-15T12:48:13.201Z,6.70
2018-01-15T12:49:13.219Z,8.90
2018-01-15T12:50:13.246Z,6.20
2018-01-15T12:51:13.254Z,6.20
2018-01-15T12:52:13.271Z,5.40
2018-01-15T12:53:13.296Z,4.70
2018-01-15T12:54:13.305Z,5.70
2018-01-15T12:55:13.324Z,4.80
2018-01-15T12:56:13.342Z,5.50